Time;durP1;ratioP1;P1;durP2;ratioP2;P2;SDS_P1;SDS_P2;PMS_P1;PMS_P2;Temp;Humidity;BMP_temperature;BMP_pressure;BME280_temperature;BME280_humidity;BME280_pressure;Samples;Min_cycle;Max_cycle;Signal;HPM_P1;HPM_P2
2022/07/15 00:01:40;;;;;;;2.45;0.40;;;27.70;54.40;;;;;;6125454;23;20009;-68
2022/07/15 00:04:06;;;;;;;1.42;0.60;;;27.70;55.50;;;;;;6124976;23;20443;-68
2022/07/15 00:06:31;;;;;;;0.60;0.52;;;27.70;54.70;;;;;;6124961;23;20462;-67
2022/07/15 00:08:57;;;;;;;2.05;0.43;;;27.70;54.70;;;;;;6123965;23;20053;-68
2022/07/15 00:11:23;;;;;;;5.15;0.60;;;27.60;54.70;;;;;;6124890;23;19999;-67
2022/07/15 00:13:48;;;;;;;4.78;0.60;;;27.60;54.70;;;;;;6125177;23;20013;-67
2022/07/15 00:16:14;;;;;;;0.95;0.52;;;27.60;55.10;;;;;;6127123;23;20002;-67
2022/07/15 00:18:43;;;;;;;1.08;0.50;;;27.50;55.00;;;;;;6101038;23;20347;-67
2022/07/15 00:21:09;;;;;;;2.25;0.70;;;27.50;55.30;;;;;;6126300;23;20005;-67
2022/07/15 00:23:35;;;;;;;1.15;0.60;;;27.50;55.20;;;;;;6099948;23;20006;-68
2022/07/15 00:26:00;;;;;;;1.20;0.50;;;27.40;55.30;;;;;;6126532;23;20006;-67
2022/07/15 00:28:28;;;;;;;0.75;0.55;;;27.40;55.30;;;;;;6101108;23;20080;-68
2022/07/15 00:30:53;;;;;;;0.75;0.35;;;27.40;55.30;;;;;;6126856;23;20493;-67
2022/07/15 00:33:19;;;;;;;1.05;0.47;;;27.30;55.50;;;;;;6126664;23;20009;-67
2022/07/15 00:35:45;;;;;;;1.05;0.70;;;27.30;55.50;;;;;;6126728;23;20005;-68
2022/07/15 00:38:10;;;;;;;2.35;0.70;;;27.30;55.60;;;;;;6126857;23;20396;-67
2022/07/15 00:40:43;;;;;;;1.25;0.60;;;27.30;55.70;;;;;;6100781;23;20002;-67
2022/07/15 00:43:09;;;;;;;0.80;0.50;;;27.30;55.80;;;;;;6126851;23;20431;-67
2022/07/15 00:45:35;;;;;;;0.73;0.40;;;27.20;55.80;;;;;;6101031;23;20040;-67
2022/07/15 00:48:00;;;;;;;0.75;0.60;;;27.20;55.90;;;;;;6126597;23;20017;-67
2022/07/15 00:50:27;;;;;;;0.93;0.60;;;27.20;55.90;;;;;;6126669;23;20153;-67
2022/07/15 00:52:55;;;;;;;0.60;0.55;;;27.20;55.90;;;;;;6100742;23;20446;-68
2022/07/15 00:55:21;;;;;;;0.80;0.50;;;27.20;56.00;;;;;;6100965;23;19998;-68
2022/07/15 00:57:47;;;;;;;1.10;0.57;;;27.20;56.00;;;;;;6100715;23;20002;-68
2022/07/15 01:00:13;;;;;;;1.02;0.60;;;27.20;56.30;;;;;;6100892;23;20443;-67
2022/07/15 01:02:39;;;;;;;3.70;0.82;;;27.20;56.30;;;;;;6100698;23;20002;-67
2022/07/15 01:05:06;;;;;;;1.98;0.80;;;27.10;56.30;;;;;;6100877;23;20457;-68
2022/07/15 01:07:32;;;;;;;0.60;0.52;;;27.20;56.40;;;;;;6100790;23;20006;-67
2022/07/15 01:09:58;;;;;;;1.45;0.65;;;27.10;56.30;;;;;;6100461;23;20002;-67
2022/07/15 01:12:24;;;;;;;0.70;0.40;;;27.10;56.40;;;;;;6126532;23;20006;-67
2022/07/15 01:14:50;;;;;;;1.20;0.57;;;27.10;56.40;;;;;;6100581;23;20374;-68
2022/07/15 01:17:16;;;;;;;3.22;0.70;;;27.00;56.40;;;;;;6100631;23;20006;-67
2022/07/15 01:19:41;;;;;;;0.98;0.50;;;27.10;56.50;;;;;;6100670;23;20461;-67
2022/07/15 01:22:07;;;;;;;1.55;0.80;;;27.00;56.50;;;;;;6100571;23;20014;-67
2022/07/15 01:24:33;;;;;;;0.80;0.60;;;27.00;56.60;;;;;;6100253;23;20002;-68
2022/07/15 01:27:00;;;;;;;1.40;0.57;;;27.00;56.60;;;;;;6125775;23;20002;-68
2022/07/15 01:29:26;;;;;;;1.85;0.60;;;27.00;56.60;;;;;;6100841;23;20106;-67
2022/07/15 01:31:51;;;;;;;1.00;0.68;;;27.00;56.80;;;;;;6100244;23;20480;-67
2022/07/15 01:34:17;;;;;;;0.75;0.50;;;27.00;56.80;;;;;;6126327;23;19994;-67
2022/07/15 01:36:43;;;;;;;0.80;0.50;;;27.00;57.00;;;;;;6100258;23;20002;-68
2022/07/15 01:39:08;;;;;;;0.65;0.60;;;27.00;57.00;;;;;;6100280;23;20005;-68
2022/07/15 01:41:34;;;;;;;0.52;0.40;;;26.90;57.10;;;;;;6126158;23;20005;-67
2022/07/15 01:43:59;;;;;;;0.88;0.57;;;26.90;57.10;;;;;;6125991;23;20029;-67
2022/07/15 01:46:25;;;;;;;1.35;0.70;;;26.90;57.20;;;;;;6126254;23;20002;-68
2022/07/15 01:51:35;;;;;;;0.50;0.50;;;26.90;57.30;;;;;;6104002;23;20041;-68
2022/07/15 01:54:00;;;;;;;2.25;0.57;;;26.90;57.40;;;;;;6125586;23;20010;-67
2022/07/15 01:56:26;;;;;;;0.70;0.47;;;26.90;57.60;;;;;;6126070;23;20057;-67
2022/07/15 01:58:51;;;;;;;1.13;0.40;;;26.90;57.50;;;;;;6125832;23;20435;-67
2022/07/15 02:01:18;;;;;;;1.17;0.70;;;26.90;57.80;;;;;;6100212;23;20076;-67
2022/07/15 02:03:44;;;;;;;0.63;0.35;;;26.90;57.70;;;;;;6125887;23;20506;-67
2022/07/15 02:06:10;;;;;;;2.42;0.63;;;26.90;57.80;;;;;;6100298;23;20006;-67
2022/07/15 02:08:35;;;;;;;0.65;0.45;;;26.90;58.00;;;;;;6125668;23;20082;-68
2022/07/15 02:11:01;;;;;;;1.02;0.50;;;26.90;57.90;;;;;;6125823;23;20052;-67
2022/07/15 02:13:27;;;;;;;0.65;0.50;;;26.90;58.10;;;;;;6099908;23;20002;-68
2022/07/15 02:15:52;;;;;;;0.80;0.50;;;26.90;58.10;;;;;;6099957;23;20006;-67
2022/07/15 02:18:18;;;;;;;0.80;0.52;;;26.90;58.10;;;;;;6125990;23;20350;-68
2022/07/15 02:20:44;;;;;;;0.90;0.63;;;26.80;58.10;;;;;;6099944;23;20343;-67
2022/07/15 02:23:09;;;;;;;1.17;0.60;;;26.80;58.10;;;;;;6099638;23;20009;-68
2022/07/15 02:25:35;;;;;;;1.52;0.57;;;26.80;58.10;;;;;;6125877;23;20009;-68
2022/07/15 02:28:02;;;;;;;1.30;0.60;;;26.80;58.30;;;;;;6099835;23;20382;-67
2022/07/15 02:30:39;;;;;;;1.42;0.57;;;26.80;58.30;;;;;;6125826;23;20054;-68
2022/07/15 02:33:05;;;;;;;0.88;0.57;;;26.80;58.30;;;;;;6100066;23;20022;-67
2022/07/15 02:35:30;;;;;;;1.40;0.50;;;26.80;58.50;;;;;;6125441;23;20420;-67
2022/07/15 02:37:56;;;;;;;0.47;0.43;;;26.80;58.40;;;;;;6099552;23;20060;-67
2022/07/15 02:40:22;;;;;;;2.20;0.60;;;26.80;58.50;;;;;;6099859;23;20028;-68
2022/07/15 02:42:49;;;;;;;1.02;0.60;;;26.80;58.80;;;;;;6099681;23;20041;-68
2022/07/15 02:45:14;;;;;;;4.53;0.80;;;26.80;58.70;;;;;;6100043;23;20006;-68
2022/07/15 02:47:40;;;;;;;4.05;0.68;;;26.80;58.70;;;;;;6099860;23;20092;-68
2022/07/15 02:50:06;;;;;;;0.47;0.45;;;26.80;58.80;;;;;;6099376;23;20068;-68
2022/07/15 02:52:32;;;;;;;1.27;0.70;;;26.80;58.70;;;;;;6099737;23;20033;-68
2022/07/15 02:54:58;;;;;;;1.10;0.60;;;26.80;58.70;;;;;;6125426;23;20002;-68
2022/07/15 02:57:24;;;;;;;1.10;0.40;;;26.80;58.70;;;;;;6125332;23;20438;-67
2022/07/15 02:59:49;;;;;;;1.52;0.73;;;26.80;58.80;;;;;;6099589;23;20008;-68
2022/07/15 03:02:16;;;;;;;3.45;0.80;;;26.80;58.90;;;;;;6125505;23;20005;-67
2022/07/15 03:04:42;;;;;;;1.33;0.60;;;26.70;58.80;;;;;;6125094;23;20002;-67
2022/07/15 03:07:08;;;;;;;1.02;0.63;;;26.70;58.70;;;;;;6125412;23;20002;-68
2022/07/15 03:09:33;;;;;;;1.45;0.47;;;26.70;58.80;;;;;;6125520;23;20044;-67
2022/07/15 03:11:59;;;;;;;1.00;0.73;;;26.70;58.70;;;;;;6125055;23;20009;-67
2022/07/15 03:14:25;;;;;;;0.90;0.60;;;26.70;58.70;;;;;;6125324;23;20005;-68
2022/07/15 03:16:51;;;;;;;2.47;0.60;;;26.70;58.70;;;;;;6125298;23;20005;-68
2022/07/15 03:19:16;;;;;;;1.65;0.60;;;26.70;58.90;;;;;;6125123;23;20002;-68
2022/07/15 03:21:42;;;;;;;0.77;0.60;;;26.70;58.90;;;;;;6125399;23;20025;-68
2022/07/15 03:24:08;;;;;;;0.90;0.50;;;26.80;58.90;;;;;;6099355;23;20386;-68
2022/07/15 03:26:33;;;;;;;2.10;0.80;;;26.70;58.90;;;;;;6125101;23;20450;-68
2022/07/15 03:29:00;;;;;;;1.13;0.70;;;26.70;58.80;;;;;;6125230;23;20006;-68
2022/07/15 03:31:26;;;;;;;4.07;1.05;;;26.70;58.90;;;;;;6125232;23;20473;-68
2022/07/15 03:33:53;;;;;;;3.83;0.55;;;26.70;58.90;;;;;;6098956;23;20006;-67
2022/07/15 03:36:18;;;;;;;0.57;0.57;;;26.70;59.00;;;;;;6125249;23;20013;-68
2022/07/15 03:38:44;;;;;;;1.33;0.50;;;26.70;58.90;;;;;;6125073;23;20002;-68
2022/07/15 03:41:10;;;;;;;0.98;0.80;;;26.70;58.80;;;;;;6125137;23;20048;-68
2022/07/15 03:43:35;;;;;;;1.02;0.50;;;26.70;59.00;;;;;;6125361;23;20342;-68
2022/07/15 03:46:01;;;;;;;1.17;0.50;;;26.60;59.00;;;;;;6099169;23;20011;-68
2022/07/15 03:48:26;;;;;;;1.23;0.52;;;26.60;58.80;;;;;;6125110;23;20002;-67
2022/07/15 03:50:52;;;;;;;1.33;0.47;;;26.60;58.90;;;;;;6126914;23;20073;-67
2022/07/15 03:53:18;;;;;;;0.40;0.40;;;26.60;59.00;;;;;;6127187;23;20014;-68
2022/07/15 03:55:43;;;;;;;7.88;0.65;;;26.70;59.00;;;;;;6127169;23;20073;-67
2022/07/15 03:58:09;;;;;;;1.98;0.52;;;26.60;58.90;;;;;;6127078;23;20025;-67
2022/07/15 04:00:34;;;;;;;1.90;0.52;;;26.60;58.90;;;;;;6101585;23;20026;-68
2022/07/15 04:03:00;;;;;;;0.90;0.57;;;26.60;58.90;;;;;;6126795;23;20001;-68
2022/07/15 04:05:26;;;;;;;2.03;0.57;;;26.60;58.90;;;;;;6127171;23;20010;-67
2022/07/15 04:07:51;;;;;;;1.63;0.70;;;26.60;58.90;;;;;;6127103;23;20006;-67
2022/07/15 04:10:17;;;;;;;0.47;0.47;;;26.60;58.80;;;;;;6126994;23;20028;-68
2022/07/15 04:12:43;;;;;;;0.50;0.30;;;26.60;58.90;;;;;;6126958;23;20009;-69
2022/07/15 04:15:09;;;;;;;0.70;0.55;;;26.60;58.80;;;;;;6126951;23;20002;-70
2022/07/15 04:17:35;;;;;;;1.30;0.65;;;26.60;58.90;;;;;;6077066;23;20002;-69
2022/07/15 04:20:01;;;;;;;1.15;0.50;;;26.60;58.80;;;;;;6101033;23;20005;-69
2022/07/15 04:22:26;;;;;;;0.80;0.50;;;26.60;58.90;;;;;;6101352;23;20013;-70
2022/07/15 04:24:52;;;;;;;0.85;0.60;;;26.60;58.90;;;;;;6126796;23;20010;-69
2022/07/15 04:27:18;;;;;;;1.20;0.60;;;26.60;58.90;;;;;;6101235;23;20442;-70
2022/07/15 04:29:43;;;;;;;0.50;0.50;;;26.60;59.90;;;;;;6127018;23;20025;-70
2022/07/15 04:32:09;;;;;;;0.75;0.60;;;26.60;59.00;;;;;;6126456;23;20342;-70
2022/07/15 04:34:35;;;;;;;0.60;0.43;;;26.50;59.00;;;;;;6126846;23;20009;-70
2022/07/15 04:37:00;;;;;;;1.02;0.60;;;26.50;58.90;;;;;;6100995;23;19998;-70
2022/07/15 04:39:26;;;;;;;1.23;0.77;;;26.50;59.00;;;;;;6100916;23;20394;-70
2022/07/15 04:41:51;;;;;;;1.10;0.60;;;26.60;59.10;;;;;;6101006;23;20002;-70
2022/07/15 04:44:20;;;;;;;0.70;0.50;;;26.60;59.10;;;;;;6126877;23;20006;-70
2022/07/15 04:46:46;;;;;;;2.90;0.50;;;26.50;59.10;;;;;;6126399;23;20056;-69
2022/07/15 04:51:55;;;;;;;0.90;0.52;;;26.60;59.20;;;;;;6126417;23;20093;-69
2022/07/15 04:54:21;;;;;;;0.85;0.60;;;26.50;59.20;;;;;;6126721;23;20021;-70
2022/07/15 04:56:47;;;;;;;0.60;0.57;;;26.50;59.20;;;;;;6126655;23;20443;-70
2022/07/15 04:59:12;;;;;;;1.77;0.65;;;26.50;59.20;;;;;;6126302;23;20431;-69
2022/07/15 05:01:38;;;;;;;0.40;0.40;;;26.50;59.20;;;;;;6126464;23;20006;-70
2022/07/15 05:04:04;;;;;;;0.90;0.50;;;26.50;59.20;;;;;;6126444;23;20002;-70
2022/07/15 05:06:29;;;;;;;0.60;0.50;;;26.50;59.20;;;;;;6126611;23;20073;-70
2022/07/15 05:08:55;;;;;;;1.13;0.68;;;26.50;59.20;;;;;;6126502;23;20442;-70
2022/07/15 05:11:20;;;;;;;0.88;0.50;;;26.50;59.20;;;;;;6126378;23;20009;-70
2022/07/15 05:13:46;;;;;;;1.10;0.60;;;26.50;59.20;;;;;;6100870;23;20008;-70
2022/07/15 05:16:12;;;;;;;0.73;0.50;;;26.50;59.30;;;;;;6126203;23;19998;-69
2022/07/15 05:18:37;;;;;;;0.80;0.50;;;26.50;59.30;;;;;;6126470;23;20002;-70
2022/07/15 05:21:03;;;;;;;0.52;0.47;;;26.50;59.30;;;;;;6126364;23;19998;-70
2022/07/15 05:23:29;;;;;;;1.13;0.90;;;26.50;59.40;;;;;;6126315;23;20006;-70
2022/07/15 05:25:54;;;;;;;0.50;0.50;;;26.50;59.40;;;;;;6100300;23;20002;-69
2022/07/15 05:28:20;;;;;;;0.70;0.50;;;26.50;59.40;;;;;;6126506;23;20010;-69
2022/07/15 05:30:46;;;;;;;0.77;0.45;;;26.50;59.40;;;;;;6100294;23;20002;-69
2022/07/15 05:33:14;;;;;;;1.95;0.80;;;26.50;59.50;;;;;;6125831;23;20500;-69
2022/07/15 05:35:40;;;;;;;0.98;0.47;;;26.50;59.50;;;;;;6100637;23;20002;-69
2022/07/15 05:38:05;;;;;;;0.50;0.40;;;26.50;59.50;;;;;;6126118;23;20406;-70
2022/07/15 05:40:31;;;;;;;0.60;0.50;;;26.50;59.50;;;;;;6100473;23;20498;-70
2022/07/15 05:42:57;;;;;;;5.55;0.50;;;26.50;59.40;;;;;;6126168;23;20072;-70
2022/07/15 05:45:22;;;;;;;0.50;0.50;;;26.50;59.40;;;;;;6100021;23;20013;-70
2022/07/15 05:47:49;;;;;;;0.68;0.65;;;26.50;59.50;;;;;;6100484;23;20014;-70
2022/07/15 05:50:15;;;;;;;0.40;0.40;;;26.50;59.40;;;;;;6100025;23;20010;-70
2022/07/15 05:52:40;;;;;;;0.77;0.60;;;26.50;59.40;;;;;;6100188;23;20347;-70
2022/07/15 05:55:06;;;;;;;1.10;0.82;;;26.40;59.30;;;;;;6125882;23;20005;-70
2022/07/15 05:57:32;;;;;;;0.90;0.50;;;26.50;59.40;;;;;;6126338;23;19998;-70
2022/07/15 05:59:58;;;;;;;0.82;0.47;;;26.40;59.40;;;;;;6125688;23;20074;-70
2022/07/15 06:02:23;;;;;;;0.35;0.30;;;26.40;59.30;;;;;;6100279;23;20038;-70
2022/07/15 06:04:49;;;;;;;2.70;0.55;;;26.40;59.40;;;;;;6125861;23;20001;-70
2022/07/15 06:07:15;;;;;;;1.05;0.50;;;26.40;59.40;;;;;;6125722;23;20002;-70
2022/07/15 06:09:40;;;;;;;0.55;0.50;;;26.40;59.40;;;;;;6126044;23;20343;-70
2022/07/15 06:12:06;;;;;;;1.33;0.50;;;26.40;59.30;;;;;;6099728;23;20446;-70
2022/07/15 06:14:32;;;;;;;0.80;0.40;;;26.40;59.40;;;;;;6125549;23;20450;-70
2022/07/15 06:16:58;;;;;;;0.40;0.40;;;26.40;59.30;;;;;;6125891;23;20005;-70
2022/07/15 06:19:24;;;;;;;0.68;0.40;;;26.40;59.40;;;;;;6100085;23;19998;-70
2022/07/15 06:21:49;;;;;;;0.50;0.47;;;26.40;59.40;;;;;;6125792;23;20077;-70
2022/07/15 06:24:16;;;;;;;0.40;0.40;;;26.40;59.40;;;;;;6125848;23;20001;-69
2022/07/15 06:26:41;;;;;;;2.78;0.57;;;26.40;59.40;;;;;;6100111;23;20010;-69
2022/07/15 06:29:07;;;;;;;2.47;0.47;;;26.40;59.50;;;;;;6125428;23;20013;-69
2022/07/15 06:31:33;;;;;;;1.60;0.57;;;26.40;59.40;;;;;;6100045;23;20028;-70
2022/07/15 06:33:59;;;;;;;2.53;0.70;;;26.40;59.40;;;;;;6099591;23;20446;-70
2022/07/15 06:36:25;;;;;;;2.05;0.50;;;26.40;59.40;;;;;;6099952;23;19998;-70
2022/07/15 06:38:51;;;;;;;1.15;0.52;;;26.40;59.40;;;;;;6100144;23;20391;-69
2022/07/15 06:41:17;;;;;;;1.83;0.50;;;26.40;59.40;;;;;;6125369;23;19998;-69
2022/07/15 06:43:44;;;;;;;0.70;0.55;;;26.40;59.40;;;;;;6125592;23;20052;-70
2022/07/15 06:46:09;;;;;;;3.13;0.80;;;26.40;59.40;;;;;;6099560;23;20011;-70
2022/07/15 06:48:35;;;;;;;0.68;0.55;;;26.40;59.50;;;;;;6099841;23;20345;-70
2022/07/15 06:51:01;;;;;;;0.70;0.45;;;26.40;59.50;;;;;;6099584;23;20476;-70
2022/07/15 06:53:26;;;;;;;1.35;0.52;;;26.40;59.50;;;;;;6125486;23;20010;-70
2022/07/15 06:55:52;;;;;;;1.33;0.40;;;26.40;59.50;;;;;;6099720;23;20383;-69
2022/07/15 06:58:18;;;;;;;0.70;0.50;;;26.30;59.40;;;;;;6099326;23;20069;-69
2022/07/15 07:00:43;;;;;;;1.13;0.63;;;26.40;59.60;;;;;;6099765;23;19998;-69
2022/07/15 07:03:09;;;;;;;0.47;0.47;;;26.30;59.50;;;;;;6125250;23;20017;-69
2022/07/15 07:05:34;;;;;;;0.82;0.50;;;26.30;59.50;;;;;;6125563;23;20013;-69
2022/07/15 07:08:00;;;;;;;1.08;0.50;;;26.30;59.60;;;;;;6125423;23;20010;-69
2022/07/15 07:10:26;;;;;;;2.72;0.80;;;26.30;59.50;;;;;;6099423;23;20465;-69
2022/07/15 07:12:52;;;;;;;1.13;0.50;;;26.30;59.60;;;;;;6125198;23;20002;-69
2022/07/15 07:15:19;;;;;;;2.83;0.60;;;26.30;59.60;;;;;;6099552;23;20367;-69
2022/07/15 07:17:44;;;;;;;0.65;0.60;;;26.30;59.60;;;;;;6125553;23;20002;-69
2022/07/15 07:20:10;;;;;;;10.35;0.68;;;26.30;59.60;;;;;;6099316;23;20030;-69
2022/07/15 07:22:36;;;;;;;0.57;0.40;;;26.30;59.60;;;;;;6125303;23;20320;-69
2022/07/15 07:25:02;;;;;;;1.48;0.60;;;26.30;59.60;;;;;;6124889;23;20057;-69
2022/07/15 07:27:27;;;;;;;1.05;0.40;;;26.30;59.60;;;;;;6124622;23;20054;-69
2022/07/15 07:29:53;;;;;;;0.50;0.40;;;26.30;59.60;;;;;;6098351;23;20006;-69
2022/07/15 07:32:19;;;;;;;2.63;0.70;;;26.30;59.70;;;;;;6124073;23;20010;-69
2022/07/15 07:34:44;;;;;;;0.88;0.60;;;26.30;59.90;;;;;;6124138;23;20316;-69
2022/07/15 07:37:10;;;;;;;2.38;0.50;;;26.30;59.70;;;;;;6098454;23;20513;-69
2022/07/15 07:39:36;;;;;;;1.45;0.40;;;26.30;59.70;;;;;;6124401;23;20009;-69
2022/07/15 07:42:01;;;;;;;1.02;0.52;;;26.30;59.80;;;;;;6123630;23;20083;-69
2022/07/15 07:44:27;;;;;;;1.10;0.60;;;26.30;59.80;;;;;;6097484;23;20447;-69
2022/07/15 07:46:53;;;;;;;1.10;0.60;;;26.30;59.80;;;;;;6097490;23;20041;-70
2022/07/15 07:49:18;;;;;;;2.45;0.50;;;26.30;59.80;;;;;;6123202;23;20041;-69
2022/07/15 07:51:44;;;;;;;1.10;0.40;;;26.30;59.60;;;;;;6123299;23;20018;-69
2022/07/15 07:54:10;;;;;;;1.30;0.40;;;26.30;58.20;;;;;;6123390;23;20065;-69
2022/07/15 07:56:36;;;;;;;0.80;0.70;;;26.20;56.90;;;;;;6097436;23;20002;-69
2022/07/15 07:59:01;;;;;;;0.85;0.50;;;26.20;56.50;;;;;;6096052;23;20001;-69
2022/07/15 08:01:27;;;;;;;0.43;0.43;;;26.20;56.40;;;;;;6097467;23;19998;-67
2022/07/15 08:03:52;;;;;;;1.15;0.60;;;26.20;56.60;;;;;;6124782;23;20089;-67
2022/07/15 08:06:18;;;;;;;2.55;0.60;;;26.20;56.80;;;;;;6125081;23;20148;-67
2022/07/15 08:08:44;;;;;;;0.57;0.32;;;26.10;56.90;;;;;;6099301;23;20006;-67
2022/07/15 08:11:11;;;;;;;0.50;0.45;;;26.20;57.00;;;;;;6124882;23;20506;-67
2022/07/15 08:13:36;;;;;;;0.70;0.50;;;26.10;56.90;;;;;;6099391;23;20030;-67
2022/07/15 08:16:02;;;;;;;1.13;0.50;;;26.20;57.00;;;;;;6099239;23;19998;-67
2022/07/15 08:18:28;;;;;;;1.63;0.63;;;26.20;57.00;;;;;;6098609;23;20445;-69
2022/07/15 08:20:54;;;;;;;1.05;0.50;;;26.20;56.90;;;;;;6099943;23;20001;-68
2022/07/15 08:23:21;;;;;;;2.38;0.50;;;26.20;56.50;;;;;;6099771;23;20367;-68
2022/07/15 08:25:47;;;;;;;0.88;0.30;;;26.30;56.50;;;;;;6100200;23;20345;-69
2022/07/15 08:28:13;;;;;;;0.65;0.43;;;26.40;56.30;;;;;;6100265;23;20084;-69
2022/07/15 08:30:38;;;;;;;0.50;0.50;;;26.40;56.30;;;;;;6125723;23;20029;-70
2022/07/15 08:33:04;;;;;;;2.83;0.60;;;26.40;56.10;;;;;;6125591;23;20037;-67
2022/07/15 08:35:30;;;;;;;0.60;0.52;;;26.40;56.00;;;;;;6100437;23;20444;-67
2022/07/15 08:37:57;;;;;;;0.70;0.40;;;26.50;56.00;;;;;;6127445;23;20025;-67
2022/07/15 08:40:24;;;;;;;0.73;0.40;;;26.50;57.10;;;;;;6127531;23;20025;-67
2022/07/15 08:42:49;;;;;;;1.33;0.50;;;26.50;55.80;;;;;;6101519;23;20009;-68
2022/07/15 08:45:16;;;;;;;1.35;0.60;;;26.50;55.80;;;;;;6099944;23;20032;-69
2022/07/15 08:47:43;;;;;;;0.63;0.52;;;26.60;55.80;;;;;;6101489;23;20053;-70
2022/07/15 08:50:11;;;;;;;1.13;0.57;;;26.60;55.80;;;;;;6101659;23;20085;-70
2022/07/15 08:52:36;;;;;;;0.47;0.32;;;26.70;55.60;;;;;;6077139;23;20347;-69
2022/07/15 08:55:02;;;;;;;0.82;0.45;;;26.70;55.80;;;;;;6127662;23;20005;-69
2022/07/15 08:57:29;;;;;;;0.90;0.60;;;26.70;55.70;;;;;;6101547;23;20014;-70
2022/07/15 08:59:55;;;;;;;0.40;0.40;;;26.70;55.60;;;;;;6101482;23;20371;-70
2022/07/15 09:02:20;;;;;;;1.02;0.40;;;26.80;55.60;;;;;;6127408;23;19998;-70
2022/07/15 09:05:26;;;;;;;0.73;0.50;;;26.80;55.50;;;;;;6101403;23;20009;-70
2022/07/15 09:07:58;;;;;;;0.70;0.50;;;26.80;55.60;;;;;;6127207;23;20005;-70
2022/07/15 09:10:44;;;;;;;1.00;0.50;;;26.80;55.50;;;;;;6127281;23;20002;-70
2022/07/15 09:13:31;;;;;;;0.50;0.50;;;26.80;55.40;;;;;;6116409;23;20092;-70
2022/07/15 09:16:04;;;;;;;0.40;0.40;;;26.80;55.30;;;;;;6100663;23;20002;-70
2022/07/15 09:18:33;;;;;;;0.85;0.40;;;26.90;55.40;;;;;;6127310;23;19998;-70
2022/07/15 09:20:59;;;;;;;0.60;0.50;;;26.90;55.30;;;;;;6127320;23;20060;-70
2022/07/15 09:23:29;;;;;;;0.45;0.30;;;26.90;55.20;;;;;;6101005;23;20093;-70
2022/07/15 09:26:22;;;;;;;0.57;0.35;;;26.90;55.20;;;;;;6127014;23;20026;-70
2022/07/15 09:28:50;;;;;;;0.57;0.50;;;26.90;55.20;;;;;;6120764;23;20005;-70
2022/07/15 09:34:17;;;;;;;0.63;0.38;;;26.90;55.10;;;;;;6106192;23;20069;-69
2022/07/15 09:36:54;;;;;;;0.45;0.43;;;27.00;55.00;;;;;;6100953;23;19997;-70
2022/07/15 09:39:23;;;;;;;0.50;0.50;;;27.00;55.10;;;;;;6102382;23;20002;-69
2022/07/15 09:41:49;;;;;;;1.10;0.40;;;27.00;55.00;;;;;;6101075;23;20002;-69
2022/07/15 09:44:19;;;;;;;0.60;0.40;;;27.00;55.10;;;;;;6126875;23;20469;-69
2022/07/15 09:46:54;;;;;;;0.70;0.50;;;27.00;55.00;;;;;;6100813;23;20029;-70
2022/07/15 09:49:23;;;;;;;0.47;0.43;;;27.00;55.00;;;;;;6126651;23;20005;-70
2022/07/15 09:51:58;;;;;;;0.50;0.50;;;27.00;55.00;;;;;;6126411;23;20087;-70
2022/07/15 09:54:30;;;;;;;0.52;0.40;;;27.00;54.90;;;;;;6126785;23;20451;-70
2022/07/15 09:57:00;;;;;;;0.40;0.40;;;27.00;55.00;;;;;;6126787;23;19998;-70
2022/07/15 09:59:25;;;;;;;0.55;0.32;;;27.00;54.90;;;;;;6126360;23;20112;-70
2022/07/15 10:01:51;;;;;;;0.93;0.30;;;27.10;54.90;;;;;;6100937;23;20478;-70
2022/07/15 10:04:21;;;;;;;1.00;0.40;;;27.00;54.80;;;;;;6100870;23;20006;-70
2022/07/15 10:06:50;;;;;;;0.90;0.43;;;27.10;54.90;;;;;;6100973;23;20006;-70
2022/07/15 10:09:28;;;;;;;0.60;0.45;;;27.10;54.90;;;;;;6101055;23;20086;-70
2022/07/15 10:11:59;;;;;;;0.50;0.50;;;27.10;54.80;;;;;;6102756;23;20006;-70
2022/07/15 10:15:02;;;;;;;0.50;0.40;;;27.10;54.90;;;;;;6101426;23;20009;-69
2022/07/15 10:17:49;;;;;;;1.05;0.68;;;27.20;54.70;;;;;;6124650;23;19998;-70
2022/07/15 10:20:26;;;;;;;0.30;0.30;;;27.10;54.60;;;;;;6100156;23;20022;-70
2022/07/15 10:22:58;;;;;;;0.60;0.50;;;27.10;54.70;;;;;;6101748;23;20040;-70
2022/07/15 10:25:45;;;;;;;0.43;0.43;;;27.10;54.70;;;;;;6100767;23;20057;-69
2022/07/15 10:28:15;;;;;;;0.77;0.43;;;27.10;54.70;;;;;;6126499;23;20002;-69
2022/07/15 10:30:42;;;;;;;0.38;0.30;;;27.20;54.70;;;;;;6100421;23;20029;-69
2022/07/15 10:33:17;;;;;;;1.05;0.50;;;27.20;54.70;;;;;;6100779;23;20009;-69
2022/07/15 10:35:48;;;;;;;0.40;0.40;;;27.20;54.70;;;;;;6099905;23;20350;-70
2022/07/15 10:38:25;;;;;;;0.63;0.40;;;27.20;54.70;;;;;;6126501;23;19998;-70
2022/07/15 10:41:01;;;;;;;0.30;0.30;;;27.20;54.70;;;;;;6126366;23;19998;-70
2022/07/15 10:43:52;;;;;;;0.47;0.40;;;27.20;54.70;;;;;;6100303;23;20002;-70
2022/07/15 10:46:18;;;;;;;0.40;0.40;;;27.20;54.60;;;;;;6102767;23;20025;-71
2022/07/15 10:48:47;;;;;;;0.73;0.40;;;27.20;54.70;;;;;;6125967;23;20030;-70
2022/07/15 10:51:33;;;;;;;0.50;0.38;;;27.20;54.60;;;;;;6125510;23;20014;-71
2022/07/15 10:53:59;;;;;;;0.50;0.40;;;27.20;54.60;;;;;;6124431;23;20016;-70
2022/07/15 10:56:37;;;;;;;0.40;0.40;;;27.20;54.80;;;;;;6074611;23;20009;-69
2022/07/15 10:59:16;;;;;;;0.35;0.35;;;27.20;54.80;;;;;;6098727;23;20081;-70
2022/07/15 11:01:44;;;;;;;0.40;0.30;;;27.20;54.70;;;;;;6099484;23;20005;-66
2022/07/15 11:04:20;;;;;;;0.40;0.40;;;27.20;55.20;;;;;;6098617;23;20092;-66
2022/07/15 11:07:07;;;;;;;0.45;0.30;;;27.20;55.10;;;;;;6099486;23;20343;-66
2022/07/15 11:09:57;;;;;;;0.70;0.40;;;27.10;55.10;;;;;;6124453;23;20443;-66
2022/07/15 11:12:22;;;;;;;0.57;0.40;;;27.10;55.20;;;;;;6124378;23;20006;-66
2022/07/15 11:14:50;;;;;;;0.28;0.28;;;27.10;55.30;;;;;;6124653;23;20001;-66
2022/07/15 11:17:18;;;;;;;0.30;0.30;;;27.10;55.30;;;;;;6124468;23;19998;-66
2022/07/15 11:19:54;;;;;;;0.32;0.30;;;27.00;55.30;;;;;;6098766;23;20001;-66
2022/07/15 11:22:21;;;;;;;1.10;0.80;;;27.00;55.30;;;;;;6125980;23;20084;-66
2022/07/15 11:24:47;;;;;;;1.88;0.80;;;27.00;55.40;;;;;;6125990;23;20009;-66
2022/07/15 11:27:13;;;;;;;2.40;0.90;;;27.00;55.40;;;;;;6099447;23;20442;-66
2022/07/15 11:29:47;;;;;;;1.42;0.90;;;27.00;55.50;;;;;;6099388;23;20056;-66
2022/07/15 11:32:14;;;;;;;3.97;1.23;;;27.00;55.50;;;;;;6124656;23;20036;-66
2022/07/15 11:34:52;;;;;;;2.63;1.20;;;26.90;55.50;;;;;;6124857;23;19994;-66
2022/07/15 11:37:23;;;;;;;4.03;1.42;;;26.90;55.40;;;;;;6100690;23;20028;-66
2022/07/15 11:39:49;;;;;;;5.97;2.30;;;26.90;55.50;;;;;;6100449;23;20106;-66
2022/07/15 11:45:08;;;;;;;3.28;1.42;;;26.90;55.50;;;;;;6102497;23;20013;-66
2022/07/15 11:47:34;;;;;;;3.67;1.40;;;26.90;55.50;;;;;;6124770;23;20073;-66
2022/07/15 11:50:04;;;;;;;3.95;1.80;;;26.90;55.50;;;;;;6125136;23;20029;-66
2022/07/15 11:52:29;;;;;;;4.57;1.50;;;26.90;55.50;;;;;;6125268;23;20010;-66
2022/07/15 11:54:56;;;;;;;5.75;1.80;;;26.90;55.60;;;;;;6125089;23;20057;-66
2022/07/15 11:57:21;;;;;;;3.55;1.48;;;26.90;55.60;;;;;;6124976;23;20460;-66
2022/07/15 11:59:54;;;;;;;3.90;1.83;;;26.90;55.60;;;;;;6099393;23;19999;-66
2022/07/15 12:02:24;;;;;;;3.88;1.83;;;26.90;55.60;;;;;;6124986;23;20002;-66
2022/07/15 12:04:50;;;;;;;4.00;1.60;;;26.90;55.60;;;;;;6100104;23;20002;-66
2022/07/15 12:07:16;;;;;;;5.38;1.83;;;26.90;55.60;;;;;;6125195;23;20009;-66
2022/07/15 12:09:45;;;;;;;5.03;1.85;;;26.90;55.60;;;;;;6099262;23;19998;-66
2022/07/15 12:12:11;;;;;;;3.33;1.55;;;26.90;55.60;;;;;;6126873;23;20002;-66
2022/07/15 12:14:37;;;;;;;5.10;2.20;;;26.90;55.70;;;;;;6101167;23;20452;-66
2022/07/15 12:17:02;;;;;;;5.57;1.83;;;26.90;55.70;;;;;;6127012;23;20026;-66
2022/07/15 12:19:29;;;;;;;3.55;1.63;;;26.90;55.70;;;;;;6101141;23;20334;-66
2022/07/15 12:21:59;;;;;;;3.40;1.70;;;26.90;55.60;;;;;;6101152;23;20414;-66
2022/07/15 12:24:26;;;;;;;3.92;2.08;;;26.90;55.60;;;;;;6102054;23;20006;-66
2022/07/15 12:26:55;;;;;;;5.22;1.70;;;26.90;55.60;;;;;;6126943;23;20057;-66
2022/07/15 12:29:22;;;;;;;6.63;2.40;;;26.90;55.70;;;;;;6126868;23;20006;-66
2022/07/15 12:31:55;;;;;;;4.28;1.60;;;26.90;55.60;;;;;;6101001;23;20013;-66
2022/07/15 12:34:21;;;;;;;3.67;1.80;;;26.90;55.60;;;;;;6126724;23;20002;-66
2022/07/15 12:36:55;;;;;;;6.43;2.15;;;26.90;55.70;;;;;;6126738;23;20347;-66
2022/07/15 12:39:21;;;;;;;4.18;1.90;;;26.90;55.60;;;;;;6101314;23;20009;-66
2022/07/15 12:42:00;;;;;;;8.55;2.38;;;26.90;55.70;;;;;;6126627;23;19998;-66
2022/07/15 12:44:26;;;;;;;3.20;1.77;;;26.90;55.70;;;;;;6126779;23;20374;-66
2022/07/15 12:46:56;;;;;;;8.50;2.30;;;26.90;55.70;;;;;;6126598;23;20002;-66
2022/07/15 12:49:46;;;;;;;5.60;2.10;;;26.80;55.60;;;;;;6100922;23;20002;-66
2022/07/15 12:52:25;;;;;;;7.20;2.20;;;26.90;55.70;;;;;;6091152;23;20502;-66
2022/07/15 12:54:54;;;;;;;5.55;2.15;;;26.90;55.70;;;;;;6068386;23;20079;-66
2022/07/15 12:57:24;;;;;;;3.08;1.88;;;26.90;55.70;;;;;;6067185;23;20339;-66
2022/07/15 13:00:12;;;;;;;5.70;1.98;;;26.90;55.70;;;;;;6068178;23;20027;-66
2022/07/15 13:03:08;;;;;;;4.70;2.30;;;26.90;55.70;;;;;;6067033;23;20029;-66